troubleshooting Question

Extract Data

Avatar of sandramac
sandramac asked on
Microsoft Excel
7 Comments1 Solution268 ViewsLast Modified:
Hello all, I am tyring to extract a weather observation.  I need to get the pressure for a weather reports.  The example below is in cell A1.  I need to get the value 3001 into cell c34.  Some things that are constant in a weather observation it is always follows the letter A and then four digits   How can i get a way to extract this data.

KICA 092253Z 02006KT 10SM TS BKN075CB OVC110 23/15 A3001
Join the community to see this answer!
Join our exclusive community to see this answer & millions of others.
Unlock 1 Answer and 7 Comments.
Join the Community
Learn from the best

Network and collaborate with thousands of CTOs, CISOs, and IT Pros rooting for you and your success.

Andrew Hancock - VMware vExpert
See if this solution works for you by signing up for a 7 day free trial.
Unlock 1 Answer and 7 Comments.
Try for 7 days

”The time we save is the biggest benefit of E-E to our team. What could take multiple guys 2 hours or more each to find is accessed in around 15 minutes on Experts Exchange.

-Mike Kapnisakis, Warner Bros